Entebbe, Uganda

4:55 PM EAT on May 05, 2015 (GMT +0300)
Entebbe International | | Change Station
CLOSE
Current Station
Airport
Location: Entebbe,
Elevation: 3789 ft
Nearby Weather Stations

Elev 3789 ft 0.04 °N, 32.44 °E | Updated 1 hour ago

Scattered Clouds
Scattered Clouds
77 °F
Feels Like 77 °F
N
13
Wind Variable Wind from South

Today
High -- | Low -- °F
--% Chance of Precip.
Yesterday
High -- | Low -- °F
Precip. -- in
6:43 AM 6:50 PM
Full, 98% visible
Pressure 30.01 in
Visibility 6.2 miles
Clouds Scattered Clouds 2200 ft
Few 2400 ft
Scattered Clouds 15000 ft
Dew Point 68 °F
Humidity 74%
Rainfall 0.00 in
Snow Depth Not available.
UV 9 out of 12
Pollen Not available.
Air Quality Not available.
Flu Activity Not available.
METAR HUEN 051200Z 17011KT 9999 SCT022 FEW024CB SCT150 25/20 Q1016

More Conditions Fewer Conditions

Pressure 30.01 in
Visibility 6.2 miles
Clouds Scattered Clouds 2200 ft
Few 2400 ft
Scattered Clouds 15000 ft
Dew Point 68 °F
Humidity 74%
Rainfall 0.00 in
Snow Depth Not available.
UV 9 out of 12
Pollen Not available.
Air Quality Not available.
Flu Activity Not available.
METAR HUEN 051200Z 17011KT 9999 SCT022 FEW024CB SCT150 25/20 Q1016

More Conditions Fewer Conditions

10-Day Weather Forecast

Almanac

Astronomy

May. 05, 2015 Rise Set
Actual Time
Civil Twilight
Nautical Twilight
Astronomical Twilight
Moon
Length of Visible Light
Length of Day
Tomorrow will be .
, % of the Moon is Illuminated

Today's Extremes

Country Highs Country Lows

Community

WunderPhotos

Upload Photos

1,818,889 photos uploaded!

WunderBlogs® & News

Nearby

Air Quality

  Air Quality AQ Index Pollutant
Not available.

Snow Depth

Station Depth Elevation

Earthquake Activity

City Distance Mag. Time & Date
Minimum magnitude displayed is 2.5.

Coastal Water Temperatures

Place Temperature

Stations

Nearby Weather Stations

Station Location Temp. Windchill Dew Point Humidity Wind Precip. Elev Updated Type